createdAt,value
2019-04-26T00:01:57.688Z,27.52
2019-04-26T00:05:01.373Z,27.53
2019-04-26T00:08:04.860Z,27.52
2019-04-26T00:11:27.333Z,27.51
2019-04-26T00:14:45.899Z,27.50
2019-04-26T00:17:55.356Z,27.49
2019-04-26T00:20:58.922Z,27.50
2019-04-26T00:24:03.348Z,27.49
2019-04-26T00:27:07.152Z,27.49
2019-04-26T00:30:12.090Z,27.48
2019-04-26T00:33:17.215Z,27.47
2019-04-26T00:36:20.883Z,27.47
2019-04-26T00:39:25.062Z,27.47
2019-04-26T00:42:28.733Z,27.47
2019-04-26T00:45:33.086Z,27.47
2019-04-26T00:48:36.574Z,27.46
2019-04-26T00:51:40.081Z,27.45
2019-04-26T00:54:43.990Z,27.47
2019-04-26T00:57:47.488Z,27.46
2019-04-26T01:00:52.104Z,27.45
2019-04-26T01:03:56.531Z,27.45
2019-04-26T01:07:00.205Z,27.44
2019-04-26T01:10:03.651Z,27.44
2019-04-26T01:13:07.269Z,27.44
2019-04-26T01:16:10.661Z,27.43
2019-04-26T01:19:14.279Z,27.43
2019-04-26T01:22:27.657Z,27.44
2019-04-26T01:25:45.157Z,27.43
2019-04-26T01:28:59.316Z,27.43
2019-04-26T01:32:11.246Z,27.41
2019-04-26T01:35:15.975Z,27.41
2019-04-26T01:38:20.806Z,27.41
2019-04-26T01:41:32.605Z,27.41
2019-04-26T01:44:50.637Z,27.42
2019-04-26T01:47:56.003Z,27.40
2019-04-26T01:50:59.508Z,27.40
2019-04-26T01:54:03.006Z,27.40
2019-04-26T01:57:06.413Z,27.38
2019-04-26T02:00:22.882Z,27.39
2019-04-26T02:03:28.479Z,27.38
2019-04-26T02:06:35.172Z,27.38
2019-04-26T02:09:38.142Z,27.38
2019-04-26T02:12:42.620Z,27.38
2019-04-26T02:15:46.169Z,27.37
2019-04-26T02:18:50.838Z,27.36
2019-04-26T02:22:00.145Z,27.37
2019-04-26T02:25:03.565Z,27.35
2019-04-26T02:28:07.024Z,27.37
2019-04-26T02:31:11.603Z,27.36
2019-04-26T02:34:15.776Z,27.37
2019-04-26T02:37:20.302Z,27.36
2019-04-26T02:40:23.787Z,27.35
2019-04-26T02:43:30.230Z,27.35
2019-04-26T02:46:49.047Z,27.35
2019-04-26T02:49:55.430Z,27.35
2019-04-26T02:53:22.519Z,27.34
2019-04-26T02:56:46.936Z,27.34
2019-04-26T02:59:50.550Z,27.33
2019-04-26T03:02:59.332Z,27.33
2019-04-26T03:06:02.771Z,27.33
2019-04-26T03:09:06.988Z,27.33
2019-04-26T03:12:12.323Z,27.31
2019-04-26T03:15:33.929Z,27.32
2019-04-26T03:19:01.322Z,27.33
2019-04-26T03:22:11.732Z,27.31
2019-04-26T03:25:53.688Z,27.31
2019-04-26T03:29:23.322Z,27.30
2019-04-26T03:32:51.514Z,27.30
2019-04-26T03:36:18.342Z,27.30
2019-04-26T03:39:32.911Z,27.29
2019-04-26T03:43:07.254Z,27.31
2019-04-26T03:46:23.166Z,27.30
2019-04-26T03:50:05.817Z,27.28
2019-04-26T03:53:42.573Z,27.27
2019-04-26T03:56:57.686Z,27.27
2019-04-26T04:00:25.331Z,27.27
2019-04-26T04:03:39.690Z,27.28
2019-04-26T04:06:58.144Z,27.27
2019-04-26T04:09:53.174Z,27.26
2019-04-26T04:13:18.185Z,27.28
2019-04-26T04:16:54.030Z,27.27
2019-04-26T04:20:28.447Z,27.28
2019-04-26T04:23:48.658Z,27.25
2019-04-26T04:27:30.853Z,27.25
2019-04-26T04:30:45.920Z,27.26
2019-04-26T04:34:01.138Z,27.25
2019-04-26T04:37:04.573Z,27.24
2019-04-26T04:40:36.682Z,27.25
2019-04-26T04:43:50.898Z,27.25
2019-04-26T04:47:23.512Z,27.23
2019-04-26T04:50:52.526Z,27.23
2019-04-26T04:54:02.592Z,27.24
2019-04-26T04:57:31.620Z,27.23
2019-04-26T05:01:22.072Z,27.24
2019-04-26T05:05:06.145Z,27.24
2019-04-26T05:08:54.900Z,27.23
2019-04-26T05:12:23.677Z,27.23
2019-04-26T05:15:53.278Z,27.23
2019-04-26T05:19:28.410Z,27.22
2019-04-26T05:22:58.072Z,27.22
2019-04-26T05:26:36.664Z,27.23
2019-04-26T05:29:52.087Z,27.23
2019-04-26T05:33:07.501Z,27.22
2019-04-26T05:36:31.393Z,27.22
2019-04-26T05:40:10.867Z,27.23
2019-04-26T05:43:27.432Z,27.22
2019-04-26T05:46:56.368Z,27.21
2019-04-26T05:50:37.309Z,27.22
2019-04-26T05:54:14.638Z,27.23
2019-04-26T05:57:41.107Z,27.22
2019-04-26T06:01:44.369Z,27.21
2019-04-26T06:05:22.515Z,27.22
2019-04-26T06:08:59.867Z,27.22
2019-04-26T06:12:13.148Z,27.22
2019-04-26T06:15:36.825Z,27.21
2019-04-26T06:18:55.329Z,27.23
2019-04-26T06:22:05.447Z,27.23
2019-04-26T06:25:29.171Z,27.22
2019-04-26T06:28:45.800Z,27.22
2019-04-26T06:31:57.965Z,27.23
2019-04-26T06:35:12.726Z,27.21
2019-04-26T06:38:57.843Z,27.21
2019-04-26T06:42:35.212Z,27.22
2019-04-26T06:46:11.409Z,27.21
2019-04-26T06:49:44.339Z,27.22
2019-04-26T06:52:58.189Z,27.21
2019-04-26T06:56:12.998Z,27.21
2019-04-26T06:59:41.182Z,27.22
2019-04-26T07:03:25.454Z,27.18
2019-04-26T07:06:35.290Z,27.20
2019-04-26T07:09:56.035Z,27.20
2019-04-26T07:13:35.906Z,27.20
2019-04-26T07:16:53.885Z,27.21
2019-04-26T07:20:15.555Z,27.21
2019-04-26T07:24:19.497Z,27.21
2019-04-26T07:27:40.808Z,27.21
2019-04-26T07:31:11.044Z,27.22
2019-04-26T07:34:39.344Z,27.22
2019-04-26T07:38:06.914Z,27.23
2019-04-26T07:41:33.503Z,27.27
2019-04-26T07:45:21.750Z,27.25
2019-04-26T07:49:25.197Z,27.22
2019-04-26T07:52:52.797Z,27.25
2019-04-26T07:56:16.218Z,27.27
2019-04-26T07:59:55.173Z,27.26
2019-04-26T08:03:24.367Z,27.28
2019-04-26T08:06:40.588Z,27.29
2019-04-26T08:09:59.976Z,27.27
2019-04-26T08:13:04.568Z,27.28
2019-04-26T08:16:26.097Z,27.29
2019-04-26T08:19:30.348Z,27.29
2019-04-26T08:22:35.561Z,27.31
2019-04-26T08:25:39.080Z,27.29
2019-04-26T08:28:42.627Z,27.31
2019-04-26T08:31:46.158Z,27.33
2019-04-26T08:34:55.871Z,27.34
2019-04-26T08:38:07.964Z,27.34
2019-04-26T08:41:09.885Z,27.35
2019-04-26T08:44:23.243Z,27.34
2019-04-26T08:47:40.451Z,27.37
2019-04-26T08:50:47.045Z,27.37
2019-04-26T08:53:50.735Z,27.37
2019-04-26T08:57:02.620Z,27.36
2019-04-26T09:00:11.052Z,27.35
2019-04-26T09:03:32.444Z,27.34
2019-04-26T09:06:41.581Z,27.37
2019-04-26T09:09:56.673Z,27.38
2019-04-26T09:12:51.308Z,27.37
2019-04-26T09:16:20.827Z,27.37
2019-04-26T09:19:26.096Z,27.39
2019-04-26T09:22:38.328Z,27.39
2019-04-26T09:25:58.556Z,27.37
2019-04-26T09:29:17.819Z,27.39
2019-04-26T09:32:29.435Z,27.40
2019-04-26T09:35:33.278Z,27.40
2019-04-26T09:38:36.801Z,27.41
2019-04-26T09:41:40.306Z,27.40
2019-04-26T09:44:59.485Z,27.43
2019-04-26T09:48:14.128Z,27.44
2019-04-26T09:51:17.758Z,27.41
2019-04-26T09:54:21.278Z,27.44
2019-04-26T09:57:24.741Z,27.45
2019-04-26T10:00:29.597Z,27.46
2019-04-26T10:03:34.389Z,27.50
2019-04-26T10:06:38.157Z,27.53
2019-04-26T10:09:43.737Z,27.55
2019-04-26T10:12:54.711Z,27.54
2019-04-26T10:16:37.723Z,27.54
2019-04-26T10:19:49.469Z,27.54
2019-04-26T10:22:53.001Z,27.54
2019-04-26T10:25:56.522Z,27.56
2019-04-26T10:29:01.053Z,27.58
2019-04-26T10:32:04.526Z,27.61
2019-04-26T10:35:09.066Z,27.62
2019-04-26T10:38:12.572Z,27.64
2019-04-26T10:41:16.647Z,27.65
2019-04-26T10:44:21.222Z,27.68
2019-04-26T10:47:25.727Z,27.70
2019-04-26T10:50:33.152Z,27.74
2019-04-26T10:53:42.069Z,27.73
2019-04-26T10:56:59.403Z,27.77
2019-04-26T11:00:05.784Z,27.77
2019-04-26T11:03:10.287Z,27.79
2019-04-26T11:06:13.710Z,27.80
2019-04-26T11:09:18.297Z,27.81
2019-04-26T11:12:21.882Z,27.82
2019-04-26T11:15:29.105Z,27.83
2019-04-26T11:18:31.459Z,27.83
2019-04-26T11:21:35.146Z,27.86
2019-04-26T11:24:38.669Z,27.88
2019-04-26T11:27:44.272Z,27.84
2019-04-26T11:30:48.039Z,27.83
2019-04-26T11:34:04.488Z,27.84
2019-04-26T11:36:57.921Z,27.84
2019-04-26T11:40:02.332Z,27.87
2019-04-26T11:43:05.910Z,27.91
2019-04-26T11:46:09.311Z,27.90
2019-04-26T11:49:12.718Z,27.92
2019-04-26T11:52:16.395Z,27.94
2019-04-26T11:55:20.902Z,27.98
2019-04-26T11:58:24.350Z,28.00
2019-04-26T12:01:29.545Z,28.01
2019-04-26T12:04:53.774Z,28.01
2019-04-26T12:08:02.335Z,28.02
2019-04-26T12:11:17.811Z,28.04
2019-04-26T12:14:20.203Z,28.05
2019-04-26T12:17:18.143Z,28.10
2019-04-26T12:20:22.453Z,28.11
2019-04-26T12:23:27.804Z,28.12
2019-04-26T12:26:42.336Z,28.14
2019-04-26T12:29:37.477Z,28.18
2019-04-26T12:32:41.985Z,28.21
2019-04-26T12:35:45.485Z,28.20
2019-04-26T12:38:49.200Z,28.22
2019-04-26T12:41:52.686Z,28.23
2019-04-26T12:45:12.295Z,28.25
2019-04-26T12:48:18.978Z,28.27
2019-04-26T12:51:22.453Z,28.30
2019-04-26T12:54:26.973Z,28.33
2019-04-26T12:57:31.557Z,28.35
2019-04-26T13:00:37.593Z,28.36
2019-04-26T13:03:43.029Z,28.38
2019-04-26T13:06:51.519Z,28.40
2019-04-26T13:10:12.792Z,28.43
2019-04-26T13:13:26.471Z,28.48
2019-04-26T13:16:40.548Z,28.46
2019-04-26T13:19:45.176Z,28.49
2019-04-26T13:22:50.213Z,28.51
2019-04-26T13:25:59.629Z,28.48
2019-04-26T13:29:01.203Z,28.47
2019-04-26T13:32:04.711Z,28.47
2019-04-26T13:35:11.346Z,28.46
2019-04-26T13:38:17.430Z,28.47
2019-04-26T13:41:20.953Z,28.48
2019-04-26T13:44:42.325Z,28.49
2019-04-26T13:48:03.865Z,28.51
2019-04-26T13:51:10.020Z,28.52
2019-04-26T13:54:16.480Z,28.53
2019-04-26T13:57:19.822Z,28.56
2019-04-26T14:00:27.151Z,28.58
2019-04-26T14:03:31.578Z,28.60
2019-04-26T14:06:35.860Z,28.64
2019-04-26T14:09:40.391Z,28.65
2019-04-26T14:12:46.249Z,28.69
2019-04-26T14:15:51.886Z,28.69
2019-04-26T14:18:55.556Z,28.69
2019-04-26T14:22:03.256Z,28.72
2019-04-26T14:25:11.283Z,28.75
2019-04-26T14:28:14.713Z,28.75
2019-04-26T14:31:19.210Z,28.79
2019-04-26T14:34:24.754Z,28.78
2019-04-26T14:37:28.305Z,28.77
2019-04-26T14:40:31.901Z,28.80
2019-04-26T14:43:41.132Z,28.83
2019-04-26T14:46:48.607Z,28.84
2019-04-26T14:49:45.982Z,28.84
2019-04-26T14:52:49.457Z,28.84
2019-04-26T14:55:54.634Z,28.85
2019-04-26T14:59:01.767Z,28.87
2019-04-26T15:02:34.609Z,28.89
2019-04-26T15:05:49.556Z,28.91
2019-04-26T15:08:53.225Z,28.88
2019-04-26T15:12:00.946Z,28.91
2019-04-26T15:15:04.205Z,28.92
2019-04-26T15:18:07.340Z,28.93
2019-04-26T15:21:10.763Z,28.95
2019-04-26T15:24:14.273Z,28.94
2019-04-26T15:27:17.693Z,28.96
2019-04-26T15:30:22.053Z,28.97
2019-04-26T15:33:26.588Z,28.97
2019-04-26T15:36:30.111Z,28.94
2019-04-26T15:39:58.289Z,28.93
2019-04-26T15:43:20.097Z,28.93
2019-04-26T15:46:49.835Z,28.92
2019-04-26T15:50:03.949Z,28.90
2019-04-26T15:53:10.555Z,28.88
2019-04-26T15:56:14.624Z,28.89
2019-04-26T15:59:18.334Z,28.88
2019-04-26T16:02:26.013Z,28.86
2019-04-26T16:05:29.650Z,28.86
2019-04-26T16:08:33.987Z,28.85
2019-04-26T16:11:38.095Z,28.85
2019-04-26T16:14:42.254Z,28.82
2019-04-26T16:17:45.833Z,28.81
2019-04-26T16:20:50.230Z,28.81
2019-04-26T16:23:55.255Z,28.80
2019-04-26T16:26:59.926Z,28.79
2019-04-26T16:30:32.566Z,28.77
2019-04-26T16:33:37.818Z,28.76
2019-04-26T16:36:42.195Z,28.74
2019-04-26T16:39:48.655Z,28.71
2019-04-26T16:42:56.566Z,28.70
2019-04-26T16:45:57.990Z,28.71
2019-04-26T16:49:04.342Z,28.68
2019-04-26T16:52:07.310Z,28.67
2019-04-26T16:55:18.202Z,28.63
2019-04-26T16:58:16.355Z,28.64
2019-04-26T17:01:19.905Z,28.65
2019-04-26T17:04:30.751Z,28.63
2019-04-26T17:07:29.471Z,28.60
2019-04-26T17:10:32.985Z,28.61
2019-04-26T17:13:48.242Z,28.60
2019-04-26T17:16:42.404Z,28.61
2019-04-26T17:19:47.438Z,28.58
2019-04-26T17:23:16.716Z,28.56
2019-04-26T17:26:36.393Z,28.56
2019-04-26T17:29:43.224Z,28.53
2019-04-26T17:32:47.569Z,28.53
2019-04-26T17:35:52.811Z,28.50
2019-04-26T17:38:56.286Z,28.49
2019-04-26T17:42:01.175Z,28.51
2019-04-26T17:45:07.022Z,28.47
2019-04-26T17:48:12.845Z,28.47
2019-04-26T17:51:18.939Z,28.45
2019-04-26T17:54:40.938Z,28.43
2019-04-26T17:57:36.056Z,28.42
2019-04-26T18:00:45.561Z,28.41
2019-04-26T18:03:37.674Z,28.40
2019-04-26T18:06:45.357Z,28.39
2019-04-26T18:09:46.956Z,28.38
2019-04-26T18:12:50.862Z,28.36
2019-04-26T18:15:54.544Z,28.37
2019-04-26T18:19:15.969Z,28.34
2019-04-26T18:22:36.171Z,28.32
2019-04-26T18:25:41.320Z,28.32
2019-04-26T18:28:51.761Z,28.29
2019-04-26T18:31:51.404Z,28.30
2019-04-26T18:34:55.005Z,28.28
2019-04-26T18:37:58.423Z,28.28
2019-04-26T18:41:03.618Z,28.28
2019-04-26T18:44:07.356Z,28.25
2019-04-26T18:47:27.549Z,28.27
2019-04-26T18:50:32.765Z,28.27
2019-04-26T18:54:00.511Z,28.25
2019-04-26T18:57:04.997Z,28.24
2019-04-26T19:00:14.306Z,28.23
2019-04-26T19:03:17.520Z,28.23
2019-04-26T19:06:31.011Z,28.24
2019-04-26T19:09:27.581Z,28.22
2019-04-26T19:12:32.633Z,28.23
2019-04-26T19:15:52.545Z,28.23
2019-04-26T19:18:59.922Z,28.22
2019-04-26T19:22:04.343Z,28.21
2019-04-26T19:25:18.972Z,28.20
2019-04-26T19:28:13.175Z,28.19
2019-04-26T19:31:19.312Z,28.21
2019-04-26T19:34:25.809Z,28.20
2019-04-26T19:37:30.433Z,28.19
2019-04-26T19:40:33.531Z,28.17
2019-04-26T19:43:39.207Z,28.16
2019-04-26T19:47:19.917Z,28.14
2019-04-26T19:50:34.475Z,28.15
2019-04-26T19:53:54.179Z,28.15
2019-04-26T19:57:11.128Z,28.15
2019-04-26T20:00:14.615Z,28.15
2019-04-26T20:03:18.030Z,28.12
2019-04-26T20:06:21.625Z,28.14
2019-04-26T20:09:26.570Z,28.14
2019-04-26T20:12:35.461Z,28.13
2019-04-26T20:15:35.392Z,28.12
2019-04-26T20:18:39.948Z,28.12
2019-04-26T20:21:45.414Z,28.12
2019-04-26T20:24:53.057Z,28.08
2019-04-26T20:27:59.804Z,28.09
2019-04-26T20:31:09.531Z,28.10
2019-04-26T20:34:16.678Z,28.09
2019-04-26T20:37:22.854Z,28.08
2019-04-26T20:40:25.523Z,28.08
2019-04-26T20:43:29.645Z,28.09
2019-04-26T20:46:37.614Z,28.09
2019-04-26T20:49:48.167Z,28.08
2019-04-26T20:52:45.529Z,28.09
2019-04-26T20:55:49.179Z,28.09
2019-04-26T20:58:52.736Z,28.08
2019-04-26T21:02:03.949Z,28.06
2019-04-26T21:05:02.109Z,28.07
2019-04-26T21:08:07.348Z,28.07
2019-04-26T21:11:11.508Z,28.05
2019-04-26T21:14:15.983Z,28.07
2019-04-26T21:17:23.650Z,28.07
2019-04-26T21:20:27.606Z,28.07
2019-04-26T21:23:35.083Z,28.06
2019-04-26T21:26:46.702Z,28.07
2019-04-26T21:30:07.842Z,28.06
2019-04-26T21:33:19.096Z,28.06
2019-04-26T21:36:41.199Z,28.05
2019-04-26T21:40:16.931Z,28.05
2019-04-26T21:43:20.008Z,28.03
2019-04-26T21:46:23.437Z,28.04
2019-04-26T21:49:26.858Z,28.05
2019-04-26T21:52:30.285Z,28.04
2019-04-26T21:55:38.379Z,28.04
2019-04-26T21:58:38.979Z,28.01
2019-04-26T22:01:43.524Z,28.00
2019-04-26T22:04:47.177Z,28.00
2019-04-26T22:07:50.722Z,27.97
2019-04-26T22:10:54.647Z,27.96
2019-04-26T22:14:03.213Z,27.90
2019-04-26T22:17:36.526Z,27.89
2019-04-26T22:20:44.809Z,27.88
2019-04-26T22:24:03.680Z,27.89
2019-04-26T22:27:07.470Z,27.84
2019-04-26T22:30:16.689Z,27.83
2019-04-26T22:33:20.494Z,27.83
2019-04-26T22:36:27.332Z,27.82
2019-04-26T22:39:32.550Z,27.84
2019-04-26T22:42:41.532Z,27.84
2019-04-26T22:45:49.054Z,27.83
2019-04-26T22:49:01.080Z,27.81
2019-04-26T22:51:58.192Z,27.78
2019-04-26T22:55:03.979Z,27.80
2019-04-26T22:58:07.399Z,27.80
2019-04-26T23:01:11.278Z,27.76
2019-04-26T23:04:17.882Z,27.76
2019-04-26T23:07:23.253Z,27.71
2019-04-26T23:10:31.135Z,27.71
2019-04-26T23:13:41.293Z,27.76
2019-04-26T23:17:04.180Z,27.72
2019-04-26T23:20:13.099Z,27.74
2019-04-26T23:23:16.773Z,27.72
2019-04-26T23:26:20.381Z,27.68
2019-04-26T23:29:24.022Z,27.71
2019-04-26T23:32:27.461Z,27.68
2019-04-26T23:35:30.965Z,27.67
2019-04-26T23:38:37.351Z,27.68
2019-04-26T23:41:41.604Z,27.68
2019-04-26T23:44:45.994Z,27.68
2019-04-26T23:47:49.481Z,27.64
2019-04-26T23:50:53.872Z,27.61
2019-04-26T23:53:57.891Z,27.61
2019-04-26T23:57:02.958Z,27.63
